TAF KIDA
KIDA 270520Z 2706/2806 35004KT P6SM SCT060 BKN100 FM271800 25005KT P6SM SCT050 BKN090 FM280200 36004KT P6SM BKN035 BKN080=
METAR KIDA
WC KIDA
WS KIDA
WV KIDA